Time;durP1;ratioP1;P1;durP2;ratioP2;P2;SDS_P1;SDS_P2;PMS_P1;PMS_P2;Temp;Humidity;BMP_temperature;BMP_pressure;BME280_temperature;BME280_humidity;BME280_pressure;Samples;Min_cycle;Max_cycle;Signal;HPM_P1;HPM_P2
2022/03/23 00:01:42;;;;;;;22.10;19.83;;;;;;;;;;6156519;28;20686;-71
2022/03/23 00:05:03;;;;;;;20.67;18.77;;;;;;;;;;6160730;28;20227;-72
2022/03/23 00:08:26;;;;;;;21.10;18.90;;;;;;;;;;6164650;28;20330;-72
2022/03/23 00:11:46;;;;;;;20.57;18.47;;;;;;;;;;6164914;28;20532;-72
2022/03/23 00:15:08;;;;;;;21.57;19.33;;;;;;;;;;6165536;28;20238;-71
2022/03/23 00:18:29;;;;;;;22.13;20.03;;;;;;;;;;6159700;28;20238;-72
2022/03/23 00:21:52;;;;;;;22.73;20.53;;;;;;;;;;6161802;28;20322;-72
2022/03/23 00:25:14;;;;;;;23.30;21.00;;;;;;;;;;6161674;28;20223;-71
2022/03/23 00:28:37;;;;;;;21.77;19.57;;;;;;;;;;6165443;28;20222;-71
2022/03/23 00:31:58;;;;;;;24.97;22.40;;;;;;;;;;6163284;28;20283;-71
2022/03/23 00:35:19;;;;;;;22.20;19.87;;;;;;;;;;6149265;28;20234;-71
2022/03/23 00:38:41;;;;;;;23.93;20.60;;;;;;;;;;6162934;28;20249;-72
2022/03/23 00:42:04;;;;;;;24.17;21.87;;;;;;;;;;6150388;28;20222;-71
2022/03/23 00:45:27;;;;;;;22.50;20.10;;;;;;;;;;6159764;28;20246;-72
2022/03/23 00:48:49;;;;;;;22.63;20.33;;;;;;;;;;6149193;28;20230;-71
2022/03/23 00:52:10;;;;;;;23.60;21.50;;;;;;;;;;6165667;28;20235;-70
2022/03/23 00:55:31;;;;;;;23.73;21.33;;;;;;;;;;6146101;28;20632;-73
2022/03/23 00:58:53;;;;;;;24.53;22.13;;;;;;;;;;6159975;28;20556;-71
2022/03/23 01:02:14;;;;;;;24.60;22.13;;;;;;;;;;6162206;28;20234;-72
2022/03/23 01:05:36;;;;;;;25.87;23.03;;;;;;;;;;6162605;28;20313;-71
2022/03/23 01:08:57;;;;;;;23.73;21.43;;;;;;;;;;6149619;28;20234;-71
2022/03/23 01:12:18;;;;;;;25.53;23.03;;;;;;;;;;6147353;28;20561;-72
2022/03/23 01:15:43;;;;;;;25.50;23.10;;;;;;;;;;6130120;28;20714;-71
2022/03/23 01:19:05;;;;;;;26.57;23.83;;;;;;;;;;6159439;28;20238;-71
2022/03/23 01:22:27;;;;;;;25.43;22.77;;;;;;;;;;6148276;28;20233;-71
2022/03/23 01:25:47;;;;;;;24.90;22.33;;;;;;;;;;6159015;28;20325;-72
2022/03/23 01:29:08;;;;;;;27.13;24.00;;;;;;;;;;6150380;28;20245;-71
2022/03/23 01:32:34;;;;;;;25.03;22.73;;;;;;;;;;6159716;28;20242;-72
2022/03/23 01:35:54;;;;;;;25.77;23.27;;;;;;;;;;6162923;28;20258;-70
2022/03/23 01:39:15;;;;;;;26.00;23.30;;;;;;;;;;6157131;28;20598;-71
2022/03/23 01:42:37;;;;;;;25.43;22.93;;;;;;;;;;6163578;28;20222;-71
2022/03/23 01:45:58;;;;;;;24.90;22.60;;;;;;;;;;6143117;28;20504;-70
2022/03/23 01:49:20;;;;;;;25.87;23.07;;;;;;;;;;6162334;28;20230;-71
2022/03/23 01:52:41;;;;;;;26.83;24.10;;;;;;;;;;6162280;28;20227;-71
2022/03/23 01:56:02;;;;;;;27.53;22.63;;;;;;;;;;6159401;28;20270;-72
2022/03/23 01:59:23;;;;;;;26.87;24.27;;;;;;;;;;6159022;28;20623;-70
2022/03/23 02:02:44;;;;;;;24.63;22.13;;;;;;;;;;6157443;28;20227;-72
2022/03/23 02:06:09;;;;;;;27.73;22.93;;;;;;;;;;6156321;28;20238;-70
2022/03/23 02:09:33;;;;;;;25.03;22.57;;;;;;;;;;6153627;28;20558;-71
2022/03/23 02:13:00;;;;;;;25.73;23.17;;;;;;;;;;6143177;28;20238;-71
2022/03/23 02:16:21;;;;;;;25.93;23.37;;;;;;;;;;6142426;28;20230;-70
2022/03/23 02:19:42;;;;;;;28.63;25.60;;;;;;;;;;6148877;28;21811;-71
2022/03/23 02:23:05;;;;;;;28.50;23.27;;;;;;;;;;6162594;28;20227;-72
2022/03/23 02:26:26;;;;;;;26.57;23.83;;;;;;;;;;6161122;28;20238;-72
2022/03/23 02:29:47;;;;;;;26.20;23.60;;;;;;;;;;6165652;28;20613;-71
2022/03/23 02:33:09;;;;;;;25.33;22.83;;;;;;;;;;6160520;28;20235;-71
2022/03/23 02:36:31;;;;;;;24.83;22.60;;;;;;;;;;6156978;28;20249;-71
2022/03/23 02:39:53;;;;;;;30.20;25.23;;;;;;;;;;6159608;28;20227;-71
2022/03/23 02:43:14;;;;;;;26.67;23.87;;;;;;;;;;6163162;28;20310;-71
2022/03/23 02:46:35;;;;;;;26.53;23.83;;;;;;;;;;6156841;28;20612;-72
2022/03/23 02:49:57;;;;;;;26.07;23.43;;;;;;;;;;6163681;28;20235;-71
2022/03/23 03:04:41;;;;;;;30.67;27.27;;;;;;;;;;6163955;28;20226;-71
2022/03/23 03:11:42;;;;;;;26.60;23.87;;;;;;;;;;6166580;28;20230;-71
2022/03/23 03:15:06;;;;;;;27.53;24.83;;;;;;;;;;6166131;28;20266;-72
2022/03/23 03:18:26;;;;;;;26.73;24.07;;;;;;;;;;6164168;28;20318;-71
2022/03/23 03:21:47;;;;;;;27.30;24.53;;;;;;;;;;6167473;28;20246;-71
2022/03/23 03:25:13;;;;;;;27.40;24.47;;;;;;;;;;6164114;28;20251;-71
2022/03/23 03:28:34;;;;;;;29.57;26.60;;;;;;;;;;6164352;28;20234;-72
2022/03/23 03:31:56;;;;;;;27.17;24.53;;;;;;;;;;6165948;28;20234;-70
2022/03/23 03:35:17;;;;;;;28.33;25.53;;;;;;;;;;6167367;28;20329;-72
2022/03/23 03:38:39;;;;;;;32.30;27.03;;;;;;;;;;6166722;28;20214;-70
2022/03/23 03:42:01;;;;;;;29.57;26.57;;;;;;;;;;6166610;28;20230;-72
2022/03/23 03:45:22;;;;;;;31.20;27.93;;;;;;;;;;6164230;28;20223;-71
2022/03/23 03:48:45;;;;;;;29.77;26.83;;;;;;;;;;6171748;28;20226;-72
2022/03/23 03:52:07;;;;;;;28.40;25.63;;;;;;;;;;6165316;28;20246;-71
2022/03/23 03:55:28;;;;;;;30.07;26.63;;;;;;;;;;6161743;28;20234;-71
2022/03/23 03:58:50;;;;;;;29.03;26.17;;;;;;;;;;6166449;28;20230;-72
2022/03/23 04:02:11;;;;;;;28.57;25.87;;;;;;;;;;6138380;28;20238;-71
2022/03/23 04:05:34;;;;;;;28.70;26.00;;;;;;;;;;6165879;28;20234;-72
2022/03/23 04:08:55;;;;;;;30.03;26.90;;;;;;;;;;6169657;28;20254;-71
2022/03/23 04:12:16;;;;;;;28.97;26.10;;;;;;;;;;6171085;28;20332;-72
2022/03/23 04:15:38;;;;;;;28.30;25.67;;;;;;;;;;6171867;28;20250;-71
2022/03/23 04:18:58;;;;;;;29.90;26.80;;;;;;;;;;6166694;28;20238;-71
2022/03/23 04:22:21;;;;;;;28.10;25.57;;;;;;;;;;6164889;28;20230;-72
2022/03/23 04:25:42;;;;;;;29.23;26.30;;;;;;;;;;6167541;28;20770;-71
2022/03/23 04:29:03;;;;;;;29.83;27.03;;;;;;;;;;6162976;28;20713;-71
2022/03/23 04:32:24;;;;;;;29.47;26.30;;;;;;;;;;6161522;28;20242;-71
2022/03/23 04:35:45;;;;;;;29.17;26.27;;;;;;;;;;6161590;28;20234;-71
2022/03/23 04:39:07;;;;;;;30.03;26.83;;;;;;;;;;6164464;28;20235;-72
2022/03/23 04:42:28;;;;;;;28.80;25.97;;;;;;;;;;6158885;28;20581;-70
2022/03/23 04:45:49;;;;;;;35.47;28.80;;;;;;;;;;6161642;28;20230;-72
2022/03/23 04:49:10;;;;;;;34.27;29.40;;;;;;;;;;6147821;28;20234;-73
2022/03/23 04:52:30;;;;;;;28.83;25.93;;;;;;;;;;6161978;28;20226;-72
2022/03/23 04:55:53;;;;;;;29.27;25.97;;;;;;;;;;6160170;28;20234;-71
2022/03/23 04:59:14;;;;;;;33.27;29.77;;;;;;;;;;6160882;28;20248;-71
2022/03/23 05:02:35;;;;;;;29.87;27.13;;;;;;;;;;6159235;28;21656;-71
2022/03/23 05:05:56;;;;;;;30.83;27.83;;;;;;;;;;6163173;28;20230;-71
2022/03/23 05:09:17;;;;;;;52.00;46.60;;;;;;;;;;6161475;28;20238;-71
2022/03/23 05:12:40;;;;;;;39.87;35.87;;;;;;;;;;6163026;28;20214;-72
2022/03/23 05:16:01;;;;;;;57.37;51.90;;;;;;;;;;6163913;28;20223;-72
2022/03/23 05:19:22;;;;;;;37.17;33.33;;;;;;;;;;6163017;28;20226;-71
2022/03/23 05:22:43;;;;;;;49.20;44.27;;;;;;;;;;6132584;28;20218;-71
2022/03/23 05:26:03;;;;;;;43.60;39.13;;;;;;;;;;6161550;28;20222;-71
2022/03/23 05:29:25;;;;;;;41.33;37.27;;;;;;;;;;6158328;28;20277;-71
2022/03/23 05:32:46;;;;;;;35.07;27.73;;;;;;;;;;6162322;28;20246;-71
2022/03/23 05:36:08;;;;;;;30.70;27.43;;;;;;;;;;6156888;28;20234;-71
2022/03/23 05:39:29;;;;;;;30.53;27.33;;;;;;;;;;6160533;28;20239;-72
2022/03/23 05:42:49;;;;;;;28.67;25.77;;;;;;;;;;6160344;28;20234;-72
2022/03/23 05:46:11;;;;;;;29.93;26.93;;;;;;;;;;6156422;28;20635;-71
2022/03/23 05:49:33;;;;;;;30.70;27.00;;;;;;;;;;6157897;28;20765;-71
2022/03/23 05:52:54;;;;;;;28.93;25.93;;;;;;;;;;6160625;28;20234;-71
2022/03/23 05:56:15;;;;;;;30.07;27.07;;;;;;;;;;6160525;28;20719;-71
2022/03/23 05:59:35;;;;;;;28.00;25.13;;;;;;;;;;6161450;28;20233;-71
2022/03/23 06:02:58;;;;;;;32.47;29.17;;;;;;;;;;6150728;28;20222;-71
2022/03/23 06:06:19;;;;;;;30.83;27.60;;;;;;;;;;6152599;28;20234;-72
2022/03/23 06:09:40;;;;;;;31.13;26.43;;;;;;;;;;6152299;28;20632;-71
2022/03/23 06:13:01;;;;;;;45.40;40.77;;;;;;;;;;6162756;28;20501;-70
2022/03/23 06:16:23;;;;;;;43.30;38.80;;;;;;;;;;6154712;28;20317;-73
2022/03/23 06:19:45;;;;;;;32.73;29.27;;;;;;;;;;6160511;28;20230;-74
2022/03/23 06:23:06;;;;;;;31.00;27.37;;;;;;;;;;6155670;28;20238;-71
2022/03/23 06:26:26;;;;;;;38.23;34.17;;;;;;;;;;6160995;28;20230;-73
2022/03/23 06:29:48;;;;;;;69.20;62.13;;;;;;;;;;6151708;28;20238;-73
2022/03/23 06:33:09;;;;;;;40.83;36.43;;;;;;;;;;6164150;28;20230;-73
2022/03/23 06:36:31;;;;;;;35.40;31.83;;;;;;;;;;6171343;28;20239;-74
2022/03/23 06:39:52;;;;;;;32.70;29.17;;;;;;;;;;6169676;28;20254;-74
2022/03/23 06:43:13;;;;;;;34.13;28.70;;;;;;;;;;6164912;28;20346;-74
2022/03/23 06:46:33;;;;;;;31.20;28.07;;;;;;;;;;6167880;28;20250;-75
2022/03/23 06:49:54;;;;;;;31.03;27.90;;;;;;;;;;6160453;28;20238;-74
2022/03/23 06:53:16;;;;;;;32.87;29.47;;;;;;;;;;6167881;28;20235;-74
2022/03/23 06:56:37;;;;;;;29.47;26.63;;;;;;;;;;6169977;28;20691;-74
2022/03/23 06:59:58;;;;;;;34.40;28.37;;;;;;;;;;6156791;28;20226;-75
2022/03/23 07:03:19;;;;;;;30.13;27.17;;;;;;;;;;6171519;28;20235;-74
2022/03/23 07:06:41;;;;;;;28.83;25.93;;;;;;;;;;6169600;28;20238;-72
2022/03/23 07:10:04;;;;;;;29.40;26.57;;;;;;;;;;6161113;28;20234;-73
2022/03/23 07:13:24;;;;;;;30.20;26.53;;;;;;;;;;6169997;28;20234;-73
2022/03/23 07:16:45;;;;;;;29.60;26.60;;;;;;;;;;6166332;28;20326;-73
2022/03/23 07:20:07;;;;;;;30.77;27.53;;;;;;;;;;6167119;28;20237;-73
2022/03/23 07:23:28;;;;;;;27.60;24.90;;;;;;;;;;6157231;28;20239;-74
2022/03/23 07:26:50;;;;;;;28.33;25.40;;;;;;;;;;6155396;28;20250;-74
2022/03/23 07:30:11;;;;;;;27.17;24.37;;;;;;;;;;6165186;28;20243;-74
2022/03/23 07:33:32;;;;;;;27.10;24.30;;;;;;;;;;6170367;28;20238;-74
2022/03/23 07:36:53;;;;;;;26.13;23.33;;;;;;;;;;6170088;28;20230;-74
2022/03/23 07:40:15;;;;;;;44.77;40.40;;;;;;;;;;6165163;28;20612;-73
2022/03/23 07:43:37;;;;;;;82.47;74.63;;;;;;;;;;6151093;28;20219;-74
2022/03/23 07:46:58;;;;;;;41.10;36.80;;;;;;;;;;6163018;28;20624;-73
2022/03/23 07:50:19;;;;;;;25.70;23.07;;;;;;;;;;6154457;28;20238;-74
2022/03/23 07:53:40;;;;;;;25.37;22.73;;;;;;;;;;6155560;28;20246;-74
2022/03/23 07:57:01;;;;;;;26.10;23.57;;;;;;;;;;6163084;28;20243;-74
2022/03/23 08:00:23;;;;;;;43.63;39.30;;;;;;;;;;6167065;28;20675;-75
2022/03/23 08:03:44;;;;;;;28.60;25.47;;;;;;;;;;6168361;28;20696;-74
2022/03/23 08:07:07;;;;;;;23.40;20.97;;;;;;;;;;6172543;28;20277;-74
2022/03/23 08:10:27;;;;;;;25.10;22.53;;;;;;;;;;6151120;28;20240;-73
2022/03/23 08:13:48;;;;;;;21.83;19.63;;;;;;;;;;6166989;28;20618;-74
2022/03/23 08:17:10;;;;;;;24.10;21.67;;;;;;;;;;6170407;28;20234;-75
2022/03/23 08:20:35;;;;;;;19.23;17.37;;;;;;;;;;6168196;28;20247;-72
2022/03/23 08:23:56;;;;;;;21.00;17.43;;;;;;;;;;6161897;28;20230;-73
2022/03/23 08:27:17;;;;;;;19.80;17.80;;;;;;;;;;6163743;28;20238;-73
2022/03/23 08:30:38;;;;;;;20.10;18.27;;;;;;;;;;6169936;28;20235;-73
2022/03/23 08:34:00;;;;;;;20.57;18.67;;;;;;;;;;6173282;28;20226;-73
2022/03/23 08:37:21;;;;;;;20.17;18.17;;;;;;;;;;6169794;28;20234;-76
2022/03/23 08:40:42;;;;;;;20.97;18.77;;;;;;;;;;6168739;28;20515;-74
2022/03/23 08:44:03;;;;;;;20.80;18.67;;;;;;;;;;6160837;28;20239;-75
2022/03/23 08:47:24;;;;;;;18.53;16.70;;;;;;;;;;6166000;28;20238;-73
2022/03/23 08:50:47;;;;;;;18.90;17.10;;;;;;;;;;6165198;28;20250;-74
2022/03/23 08:54:08;;;;;;;18.77;16.77;;;;;;;;;;6167734;28;20234;-73
2022/03/23 08:57:29;;;;;;;20.87;19.03;;;;;;;;;;6169608;28;20234;-75
2022/03/23 09:00:50;;;;;;;18.83;17.23;;;;;;;;;;6148027;28;20243;-74
2022/03/23 09:04:11;;;;;;;20.70;18.60;;;;;;;;;;6156070;28;20625;-72
2022/03/23 09:07:34;;;;;;;21.73;18.60;;;;;;;;;;6168987;28;20258;-73
2022/03/23 09:10:55;;;;;;;25.40;21.50;;;;;;;;;;6167611;28;20234;-73
2022/03/23 09:14:16;;;;;;;22.57;19.83;;;;;;;;;;6163196;28;20241;-75
2022/03/23 09:17:37;;;;;;;25.53;21.33;;;;;;;;;;6166111;28;20647;-74
2022/03/23 09:20:58;;;;;;;21.30;19.40;;;;;;;;;;6166545;28;20238;-74
2022/03/23 09:24:20;;;;;;;21.30;19.20;;;;;;;;;;6162857;28;20234;-74
2022/03/23 09:27:43;;;;;;;23.90;21.40;;;;;;;;;;6167923;28;20238;-73
2022/03/23 09:31:04;;;;;;;22.37;20.07;;;;;;;;;;6158981;28;20785;-74
2022/03/23 09:34:25;;;;;;;20.70;18.80;;;;;;;;;;6162245;28;20317;-74
2022/03/23 09:37:48;;;;;;;18.90;17.17;;;;;;;;;;6165474;28;20234;-73
2022/03/23 09:41:11;;;;;;;20.83;18.93;;;;;;;;;;6159615;28;20336;-73
2022/03/23 09:44:34;;;;;;;21.07;18.90;;;;;;;;;;6166330;28;20237;-74
2022/03/23 09:47:55;;;;;;;20.07;18.13;;;;;;;;;;6166533;28;20234;-74
2022/03/23 09:51:18;;;;;;;22.37;19.60;;;;;;;;;;6160511;28;20625;-73
2022/03/23 09:54:41;;;;;;;18.90;16.90;;;;;;;;;;6164057;28;20230;-73
2022/03/23 09:58:06;;;;;;;14.60;13.17;;;;;;;;;;6162388;28;20608;-73
2022/03/23 10:02:13;;;;;;;14.93;13.67;;;;;;;;;;6166807;28;20608;-73
2022/03/23 10:05:59;;;;;;;20.40;18.53;;;;;;;;;;6170900;28;20313;-74
2022/03/23 10:09:47;;;;;;;18.17;16.43;;;;;;;;;;6157908;28;20554;-74
2022/03/23 10:13:45;;;;;;;18.73;16.40;;;;;;;;;;6142680;28;20231;-74
2022/03/23 10:17:45;;;;;;;17.67;15.57;;;;;;;;;;6166453;28;20238;-74
2022/03/23 10:21:07;;;;;;;18.17;16.47;;;;;;;;;;6167998;28;20345;-73
2022/03/23 10:24:34;;;;;;;17.08;15.15;;;;;;;;;;6171243;28;20235;-74
2022/03/23 10:27:55;;;;;;;21.40;17.23;;;;;;;;;;6156748;28;20242;-73
2022/03/23 10:31:17;;;;;;;19.38;17.48;;;;;;;;;;6145308;28;20559;-74
2022/03/23 10:34:44;;;;;;;18.25;16.48;;;;;;;;;;6173790;28;20238;-75
2022/03/23 10:38:16;;;;;;;17.58;15.30;;;;;;;;;;6166804;28;20616;-73
2022/03/23 10:41:37;;;;;;;19.60;17.30;;;;;;;;;;6170647;28;20616;-74
2022/03/23 10:45:08;;;;;;;18.13;16.33;;;;;;;;;;6165246;28;20239;-74
2022/03/23 10:48:29;;;;;;;15.85;14.25;;;;;;;;;;6168964;28;20231;-75
2022/03/23 10:51:56;;;;;;;20.73;17.27;;;;;;;;;;6138498;28;20230;-73
2022/03/23 10:55:16;;;;;;;18.88;17.15;;;;;;;;;;6161633;28;20243;-73
2022/03/23 10:58:38;;;;;;;17.15;15.43;;;;;;;;;;6168560;28;20250;-76
2022/03/23 11:02:00;;;;;;;18.67;16.88;;;;;;;;;;6167845;28;20253;-74
2022/03/23 11:05:31;;;;;;;17.40;15.60;;;;;;;;;;6168790;28;20242;-74
2022/03/23 11:08:54;;;;;;;17.25;15.82;;;;;;;;;;6169741;28;20357;-73
2022/03/23 11:16:02;;;;;;;17.40;15.90;;;;;;;;;;6165578;28;20234;-73
2022/03/23 11:19:26;;;;;;;20.90;16.40;;;;;;;;;;6168978;28;20238;-73
2022/03/23 11:22:47;;;;;;;16.15;14.55;;;;;;;;;;6160606;28;20632;-72
2022/03/23 11:26:10;;;;;;;15.95;14.35;;;;;;;;;;6168596;28;20579;-72
2022/03/23 11:29:32;;;;;;;17.60;15.55;;;;;;;;;;6167606;28;20234;-73
2022/03/23 11:32:53;;;;;;;17.08;15.30;;;;;;;;;;6163933;28;20246;-73
2022/03/23 11:36:14;;;;;;;17.98;16.38;;;;;;;;;;6141936;28;20226;-73
2022/03/23 11:39:36;;;;;;;18.88;15.38;;;;;;;;;;6160844;28;20616;-73
2022/03/23 11:42:58;;;;;;;17.50;15.90;;;;;;;;;;6170021;28;20325;-73
2022/03/23 11:46:23;;;;;;;18.23;16.42;;;;;;;;;;6166252;28;20607;-72
2022/03/23 11:49:48;;;;;;;17.80;16.17;;;;;;;;;;6155622;28;20226;-74
2022/03/23 11:53:18;;;;;;;19.33;17.55;;;;;;;;;;6167742;28;20246;-73
2022/03/23 11:56:45;;;;;;;18.10;16.50;;;;;;;;;;6168140;28;20624;-73
2022/03/23 12:00:17;;;;;;;18.13;16.55;;;;;;;;;;6167615;28;20234;-73
2022/03/23 12:03:53;;;;;;;18.08;16.25;;;;;;;;;;6167824;28;20238;-73
2022/03/23 12:07:15;;;;;;;18.50;16.88;;;;;;;;;;6165414;28;20235;-73
2022/03/23 12:10:43;;;;;;;17.33;15.90;;;;;;;;;;6169109;28;20656;-72
2022/03/23 12:14:06;;;;;;;18.95;17.20;;;;;;;;;;6160850;28;20342;-72
2022/03/23 12:17:29;;;;;;;19.42;17.63;;;;;;;;;;6165424;28;20226;-74
2022/03/23 12:20:51;;;;;;;17.38;15.77;;;;;;;;;;6168617;28;20236;-73
2022/03/23 12:24:15;;;;;;;19.50;17.67;;;;;;;;;;6166518;28;20229;-73
2022/03/23 12:27:40;;;;;;;19.50;17.75;;;;;;;;;;6167965;28;20700;-74
2022/03/23 12:31:14;;;;;;;18.77;17.10;;;;;;;;;;6168364;28;20246;-73
2022/03/23 12:34:37;;;;;;;18.35;16.52;;;;;;;;;;6166008;28;20234;-73
2022/03/23 12:37:59;;;;;;;18.27;16.45;;;;;;;;;;6161353;28;20317;-73
2022/03/23 12:41:20;;;;;;;17.45;15.75;;;;;;;;;;6169091;28;20238;-73
2022/03/23 12:44:42;;;;;;;13.55;12.15;;;;;;;;;;6167670;28;20636;-73
2022/03/23 12:57:49;;;;;;;15.32;14.02;;;;;;;;;;6171084;28;20620;-74
2022/03/23 12:59:17;;;;;;;15.75;14.45;;;;;;;;;;6162552;28;20234;-73
2022/03/23 13:02:39;;;;;;;15.52;14.23;;;;;;;;;;6166924;28;20230;-73
2022/03/23 13:06:08;;;;;;;19.40;17.65;;;;;;;;;;6157274;28;20231;-74
2022/03/23 13:09:32;;;;;;;18.90;17.30;;;;;;;;;;6165667;28;20233;-72
2022/03/23 13:13:05;;;;;;;18.85;17.25;;;;;;;;;;6165624;28;20238;-73
2022/03/23 13:16:30;;;;;;;19.27;16.63;;;;;;;;;;6154477;28;20222;-72
2022/03/23 13:19:56;;;;;;;33.72;30.92;;;;;;;;;;6165683;28;20535;-72
2022/03/23 13:23:19;;;;;;;20.70;17.23;;;;;;;;;;6163535;28;20234;-73
2022/03/23 13:26:44;;;;;;;17.55;16.05;;;;;;;;;;6166133;28;20250;-72
2022/03/23 13:30:07;;;;;;;16.45;14.85;;;;;;;;;;6164331;28;20578;-72
2022/03/23 13:33:35;;;;;;;18.10;16.20;;;;;;;;;;6159713;28;20235;-73
2022/03/23 13:37:00;;;;;;;16.98;15.25;;;;;;;;;;6162036;28;20242;-72
2022/03/23 13:40:21;;;;;;;18.27;16.38;;;;;;;;;;6165422;28;20226;-72
2022/03/23 13:43:43;;;;;;;20.05;18.23;;;;;;;;;;6166289;28;20620;-72
2022/03/23 13:47:04;;;;;;;16.65;15.15;;;;;;;;;;6166739;28;20238;-73
2022/03/23 13:50:27;;;;;;;19.77;17.67;;;;;;;;;;6168108;28;20242;-72
2022/03/23 13:53:48;;;;;;;19.13;17.63;;;;;;;;;;6159056;28;20242;-74
2022/03/23 13:57:10;;;;;;;19.83;18.08;;;;;;;;;;6165453;28;20227;-72
2022/03/23 14:00:33;;;;;;;19.88;18.10;;;;;;;;;;6170372;28;20238;-72
2022/03/23 14:03:57;;;;;;;19.80;18.20;;;;;;;;;;6162756;28;20238;-72
2022/03/23 14:07:18;;;;;;;20.65;18.60;;;;;;;;;;6142722;28;20239;-73
2022/03/23 14:10:41;;;;;;;20.80;18.80;;;;;;;;;;6165208;28;20234;-73
2022/03/23 14:14:02;;;;;;;19.55;17.50;;;;;;;;;;6153036;28;20539;-71
2022/03/23 14:17:25;;;;;;;18.42;16.73;;;;;;;;;;6164656;28;20254;-73
2022/03/23 14:20:51;;;;;;;22.42;19.08;;;;;;;;;;6155212;28;20317;-73
2022/03/23 14:24:12;;;;;;;18.08;16.23;;;;;;;;;;6166646;28;20230;-74
2022/03/23 14:27:36;;;;;;;22.20;20.40;;;;;;;;;;6170905;28;20230;-73
2022/03/23 14:30:59;;;;;;;21.55;19.38;;;;;;;;;;6166572;28;20234;-73
2022/03/23 14:34:27;;;;;;;22.27;19.98;;;;;;;;;;6166628;28;20337;-73
2022/03/23 14:37:48;;;;;;;27.05;24.60;;;;;;;;;;6165097;28;20230;-72
2022/03/23 14:41:19;;;;;;;19.63;17.75;;;;;;;;;;6162351;28;20258;-72
2022/03/23 14:44:44;;;;;;;19.60;17.75;;;;;;;;;;6155972;28;20672;-73
2022/03/23 14:48:15;;;;;;;22.98;20.67;;;;;;;;;;6164391;28;20230;-72
2022/03/23 14:51:40;;;;;;;21.58;19.48;;;;;;;;;;6171431;28;20238;-74
2022/03/23 14:55:01;;;;;;;21.95;19.98;;;;;;;;;;6170062;28;20234;-74
2022/03/23 14:58:24;;;;;;;22.80;20.48;;;;;;;;;;6163750;28;20246;-73
2022/03/23 15:01:46;;;;;;;21.48;19.60;;;;;;;;;;6159314;28;20230;-73
2022/03/23 15:13:15;;;;;;;22.05;19.75;;;;;;;;;;6170582;28;20676;-73
2022/03/23 15:16:07;;;;;;;22.45;20.08;;;;;;;;;;6158279;28;20238;-73
2022/03/23 15:19:28;;;;;;;23.27;20.85;;;;;;;;;;6162215;28;20237;-72
2022/03/23 15:22:49;;;;;;;25.35;22.38;;;;;;;;;;6170011;28;20234;-73
2022/03/23 15:26:11;;;;;;;23.52;21.17;;;;;;;;;;6171097;28;20787;-73
2022/03/23 15:29:35;;;;;;;23.92;20.23;;;;;;;;;;6164477;28;20611;-73
2022/03/23 15:32:56;;;;;;;24.73;20.73;;;;;;;;;;6173069;28;20317;-73
2022/03/23 15:36:16;;;;;;;22.20;20.13;;;;;;;;;;6175590;28;20246;-73
2022/03/23 15:39:37;;;;;;;24.40;21.52;;;;;;;;;;6157232;28;20238;-74
2022/03/23 15:43:07;;;;;;;23.15;20.85;;;;;;;;;;6133021;28;20230;-74
2022/03/23 15:46:28;;;;;;;23.25;20.58;;;;;;;;;;6167980;28;20222;-73
2022/03/23 15:49:49;;;;;;;24.70;22.13;;;;;;;;;;6142723;28;20322;-75
2022/03/23 15:53:10;;;;;;;24.58;21.98;;;;;;;;;;6170411;28;20242;-73
2022/03/23 15:56:30;;;;;;;23.58;21.30;;;;;;;;;;6168993;28;20234;-73
2022/03/23 15:59:53;;;;;;;25.08;22.45;;;;;;;;;;6154256;28;20239;-74
2022/03/23 16:03:15;;;;;;;27.25;23.80;;;;;;;;;;6138407;28;20231;-74
2022/03/23 16:06:38;;;;;;;25.20;22.48;;;;;;;;;;6153983;28;20989;-74
2022/03/23 16:09:59;;;;;;;26.23;23.13;;;;;;;;;;6158462;28;20222;-74
2022/03/23 16:13:20;;;;;;;25.50;23.02;;;;;;;;;;6163712;28;20231;-73
2022/03/23 16:16:43;;;;;;;24.50;22.00;;;;;;;;;;6168978;28;20242;-72
2022/03/23 16:20:06;;;;;;;24.08;21.55;;;;;;;;;;6163481;28;20246;-73
2022/03/23 16:23:27;;;;;;;30.90;27.70;;;;;;;;;;6167704;28;20226;-73
2022/03/23 16:26:48;;;;;;;27.83;25.30;;;;;;;;;;6166535;28;20520;-73
2022/03/23 16:30:11;;;;;;;28.00;25.00;;;;;;;;;;6168791;28;20238;-73
2022/03/23 16:33:33;;;;;;;28.88;26.02;;;;;;;;;;6164854;28;20235;-73
2022/03/23 16:36:55;;;;;;;28.80;25.90;;;;;;;;;;6170338;28;20226;-73
2022/03/23 16:40:19;;;;;;;28.08;25.27;;;;;;;;;;6157549;28;20234;-73
2022/03/23 16:43:40;;;;;;;29.88;26.90;;;;;;;;;;6168461;28;20242;-72
2022/03/23 16:47:01;;;;;;;27.33;24.52;;;;;;;;;;6163650;28;20242;-72
2022/03/23 16:50:24;;;;;;;29.75;26.10;;;;;;;;;;6167012;28;20231;-73
2022/03/23 16:53:45;;;;;;;41.85;37.53;;;;;;;;;;6165299;28;20238;-72
2022/03/23 16:57:06;;;;;;;24.65;22.02;;;;;;;;;;6169453;28;20214;-75
2022/03/23 17:00:27;;;;;;;25.35;23.02;;;;;;;;;;6152731;28;20231;-73
2022/03/23 17:18:53;;;;;;;29.00;25.90;;;;;;;;;;6165818;28;20231;-75
2022/03/23 17:22:13;;;;;;;29.02;26.15;;;;;;;;;;6170324;28;20245;-74
2022/03/23 17:25:37;;;;;;;27.77;24.95;;;;;;;;;;6146060;28;20563;-72
2022/03/23 17:28:57;;;;;;;30.05;26.90;;;;;;;;;;6157465;28;20571;-70
2022/03/23 17:32:19;;;;;;;29.45;26.45;;;;;;;;;;6162793;28;20514;-69
2022/03/23 17:35:40;;;;;;;30.70;26.65;;;;;;;;;;6161905;28;20242;-70
2022/03/23 17:39:01;;;;;;;30.00;25.05;;;;;;;;;;6171966;28;20623;-70
2022/03/23 17:42:23;;;;;;;30.75;27.83;;;;;;;;;;6163380;28;20231;-70
2022/03/23 17:45:44;;;;;;;31.35;28.27;;;;;;;;;;6163427;28;20242;-69
2022/03/23 17:49:05;;;;;;;30.40;27.08;;;;;;;;;;6167110;28;20234;-69
2022/03/23 17:52:26;;;;;;;30.85;27.67;;;;;;;;;;6164749;28;20510;-69
2022/03/23 17:55:47;;;;;;;33.40;29.33;;;;;;;;;;6171390;28;20233;-70
2022/03/23 17:59:09;;;;;;;32.40;28.90;;;;;;;;;;6163274;28;20257;-68
2022/03/23 18:02:31;;;;;;;31.80;28.67;;;;;;;;;;6164618;28;20234;-68
2022/03/23 18:05:52;;;;;;;33.22;29.83;;;;;;;;;;6150024;28;20719;-68
2022/03/23 18:09:12;;;;;;;31.60;28.42;;;;;;;;;;6151285;28;20241;-69
2022/03/23 18:12:34;;;;;;;33.28;29.88;;;;;;;;;;6164952;28;20233;-69
2022/03/23 18:15:56;;;;;;;33.58;30.05;;;;;;;;;;6156757;28;21093;-69
2022/03/23 18:19:18;;;;;;;34.20;30.83;;;;;;;;;;6164696;28;20435;-68
2022/03/23 18:22:39;;;;;;;35.53;31.73;;;;;;;;;;6150827;28;20301;-70
2022/03/23 18:26:00;;;;;;;37.07;32.27;;;;;;;;;;6156771;28;20223;-69
2022/03/23 18:29:21;;;;;;;38.00;32.73;;;;;;;;;;6165089;28;20230;-69
2022/03/23 18:32:44;;;;;;;34.22;30.75;;;;;;;;;;6163127;28;20230;-69
2022/03/23 18:36:05;;;;;;;34.10;30.60;;;;;;;;;;6161848;28;20280;-68
2022/03/23 18:39:26;;;;;;;34.83;31.10;;;;;;;;;;6160356;28;20483;-67
2022/03/23 18:42:47;;;;;;;33.20;29.67;;;;;;;;;;6164490;28;20242;-69
2022/03/23 18:46:08;;;;;;;33.72;30.00;;;;;;;;;;6160574;28;20234;-69
2022/03/23 18:49:30;;;;;;;36.55;32.85;;;;;;;;;;6161557;28;20230;-68
2022/03/23 18:52:51;;;;;;;35.30;31.67;;;;;;;;;;6169619;28;20549;-70
2022/03/23 18:56:12;;;;;;;35.73;31.30;;;;;;;;;;6164016;28;20231;-77
2022/03/23 18:59:33;;;;;;;35.90;31.00;;;;;;;;;;6163171;28;20244;-75
2022/03/23 19:02:55;;;;;;;35.13;31.50;;;;;;;;;;6158547;28;20923;-71
2022/03/23 19:06:18;;;;;;;35.60;31.80;;;;;;;;;;6156868;28;20636;-75
2022/03/23 19:09:39;;;;;;;38.60;34.50;;;;;;;;;;6157421;28;20471;-71
2022/03/23 19:13:00;;;;;;;38.43;34.50;;;;;;;;;;6156416;28;20334;-71
2022/03/23 19:16:21;;;;;;;38.25;34.65;;;;;;;;;;6153940;28;21156;-73
2022/03/23 19:19:42;;;;;;;37.40;33.47;;;;;;;;;;6159263;28;20238;-70
2022/03/23 19:23:04;;;;;;;39.27;35.23;;;;;;;;;;6148309;28;20231;-75
2022/03/23 19:26:25;;;;;;;39.63;35.83;;;;;;;;;;6153786;28;20766;-74
2022/03/23 19:29:46;;;;;;;38.10;34.10;;;;;;;;;;6154046;28;20238;-70
2022/03/23 19:33:07;;;;;;;39.30;34.23;;;;;;;;;;6161549;28;20226;-72
2022/03/23 19:36:28;;;;;;;36.53;32.23;;;;;;;;;;6166359;28;20231;-70
2022/03/23 19:39:50;;;;;;;37.07;33.27;;;;;;;;;;6161395;28;20235;-71
2022/03/23 19:43:11;;;;;;;39.00;34.73;;;;;;;;;;6155256;28;20245;-70
2022/03/23 19:46:32;;;;;;;38.83;34.37;;;;;;;;;;6159854;28;20226;-71
2022/03/23 19:49:54;;;;;;;39.30;35.13;;;;;;;;;;6161502;28;20223;-73
2022/03/23 19:53:15;;;;;;;40.17;35.40;;;;;;;;;;6162819;28;20512;-72
2022/03/23 19:56:38;;;;;;;39.80;33.97;;;;;;;;;;6162389;28;20227;-75
2022/03/23 19:59:58;;;;;;;41.03;36.80;;;;;;;;;;6167818;28;20230;-70
2022/03/23 20:03:19;;;;;;;39.60;35.43;;;;;;;;;;6164542;28;21000;-72
2022/03/23 20:06:40;;;;;;;39.20;34.60;;;;;;;;;;6156897;28;20227;-73
2022/03/23 20:10:01;;;;;;;38.47;34.37;;;;;;;;;;6160272;28;20575;-72
2022/03/23 20:13:26;;;;;;;40.37;36.20;;;;;;;;;;6161834;28;20238;-77
2022/03/23 20:16:47;;;;;;;42.20;37.37;;;;;;;;;;6165000;28;20585;-75
2022/03/23 20:20:09;;;;;;;41.60;36.47;;;;;;;;;;6162169;28;20793;-73
2022/03/23 20:23:30;;;;;;;40.57;36.13;;;;;;;;;;6166390;28;20227;-73
2022/03/23 20:26:51;;;;;;;38.53;34.50;;;;;;;;;;6163067;28;20617;-75